Observation data for Sundown on 08/21/2019      Previous  Date  Next       Current Mesonet Observations  Soil Data  Daily Summary Page  Observations in Plain Language
KSDS 210500Z 15009KT 26/11 A3011 RMK A01 T02630111  RH  040%=      5-min Rain = 0
KSDS 210505Z 15009KT 26/11 A3011 RMK A01 T02610112  RH  041%=      5-min Rain = 0
KSDS 210510Z 15008KT 26/11 A3011 RMK A01 T02580112  RH  041%=      5-min Rain = 0
KSDS 210515Z 15008KT 26/11 A3011 RMK A01 T02560113  RH  042%=      5-min Rain = 0
KSDS 210520Z 15008KT 25/11 A3011 RMK A01 T02530113  RH  043%=      5-min Rain = 0
KSDS 210525Z 15008KT 25/11 A3011 RMK A01 T02500114  RH  044%=      5-min Rain = 0
KSDS 210530Z 15008KT 25/12 A3011 RMK A01 T02480115  RH  045%=      5-min Rain = 0
KSDS 210535Z 15008KT 25/12 A3011 RMK A01 T02470115  RH  045%=      5-min Rain = 0
KSDS 210540Z 15008KT 25/12 A3011 RMK A01 T02450116  RH  046%=      5-min Rain = 0
KSDS 210545Z 15008KT 24/12 A3011 RMK A01 T02440116  RH  046%=      5-min Rain = 0
KSDS 210550Z 15008KT 24/12 A3011 RMK A01 T02430117  RH  047%=      5-min Rain = 0
KSDS 210555Z 15008KT 24/12 A3011 RMK A01 T02410117  RH  047%=      5-min Rain = 0
KSDS 210600Z 15008KT 24/12 A3011 RMK A01 T02400117  RH  048%=      5-min Rain = 0
KSDS 210605Z 15007KT 24/12 A3011 RMK A01 T02390117  RH  048%=      5-min Rain = 0
KSDS 210610Z 15007KT 24/12 A3011 RMK A01 T02370118  RH  049%=      5-min Rain = 0
KSDS 210615Z 16007KT 23/12 A3011 RMK A01 T02330118  RH  050%=      5-min Rain = 0
KSDS 210620Z 16008KT 23/12 A3011 RMK A01 T02290118  RH  051%=      5-min Rain = 0
KSDS 210625Z 16008KT 23/12 A3011 RMK A01 T02270118  RH  052%=      5-min Rain = 0
KSDS 210630Z 16007KT 23/12 A3011 RMK A01 T02260118  RH  052%=      5-min Rain = 0
KSDS 210635Z 16007KT 22/12 A3011 RMK A01 T02230118  RH  053%=      5-min Rain = 0
KSDS 210640Z 16007KT 22/12 A3011 RMK A01 T02200118  RH  054%=      5-min Rain = 0
KSDS 210645Z 16007KT 22/12 A3011 RMK A01 T02170118  RH  055%=      5-min Rain = 0
KSDS 210650Z 16006KT 22/12 A3011 RMK A01 T02150117  RH  056%=      5-min Rain = 0
KSDS 210655Z 16005KT 21/12 A3011 RMK A01 T02120117  RH  057%=      5-min Rain = 0
KSDS 210700Z 17005KT 21/12 A3011 RMK A01 T02100117  RH  057%=      5-min Rain = 0
KSDS 210705Z 17006KT 21/12 A3011 RMK A01 T02100117  RH  057%=      5-min Rain = 0
KSDS 210710Z 17006KT 21/12 A3011 RMK A01 T02100117  RH  057%=      5-min Rain = 0
KSDS 210715Z 17006KT 21/12 A3011 RMK A01 T02080117  RH  058%=      5-min Rain = 0
KSDS 210720Z 17006KT 21/12 A3011 RMK A01 T02080117  RH  058%=      5-min Rain = 0
KSDS 210725Z 17007KT 21/12 A3011 RMK A01 T02080117  RH  058%=      5-min Rain = 0
KSDS 210730Z 17008KT 21/12 A3011 RMK A01 T02090116  RH  057%=      5-min Rain = 0
KSDS 210735Z 17008KT 21/12 A3011 RMK A01 T02080116  RH  057%=      5-min Rain = 0
KSDS 210740Z 16008KT 21/12 A3011 RMK A01 T02060115  RH  058%=      5-min Rain = 0
KSDS 210745Z 16007KT 20/12 A3011 RMK A01 T02030115  RH  059%=      5-min Rain = 0
KSDS 210750Z 16007KT 20/12 A3011 RMK A01 T02020116  RH  060%=      5-min Rain = 0
KSDS 210755Z 17007KT 20/12 A301 RMK A01 T02020116  RH  060%=      5-min Rain = 0
KSDS 210800Z 17007KT 20/12 A301 RMK A01 T02020116  RH  060%=      5-min Rain = 0
KSDS 210805Z 17007KT 20/12 A301 RMK A01 T02000116  RH  061%=      5-min Rain = 0
KSDS 210810Z 17007KT 20/12 A301 RMK A01 T01990117  RH  061%=      5-min Rain = 0
KSDS 210815Z 17008KT 20/12 A301 RMK A01 T01970116  RH  062%=      5-min Rain = 0
KSDS 210820Z 17007KT 20/12 A301 RMK A01 T01980117  RH  062%=      5-min Rain = 0
KSDS 210825Z 17007KT 20/12 A301 RMK A01 T01990117  RH  061%=      5-min Rain = 0
KSDS 210830Z 18006KT 20/12 A301 RMK A01 T01990117  RH  061%=      5-min Rain = 0
KSDS 210835Z 18006KT 20/12 A3011 RMK A01 T02000118  RH  061%=      5-min Rain = 0
KSDS 210840Z 18006KT 20/12 A3011 RMK A01 T02000118  RH  061%=      5-min Rain = 0
KSDS 210845Z 19006KT 20/12 A3011 RMK A01 T01990118  RH  062%=      5-min Rain = 0
KSDS 210850Z 19006KT 20/12 A3011 RMK A01 T01960118  RH  063%=      5-min Rain = 0
KSDS 210855Z 20006KT 20/12 A3011 RMK A01 T01960119  RH  063%=      5-min Rain = 0
KSDS 210900Z 20006KT 20/12 A3011 RMK A01 T01980119  RH  063%=      5-min Rain = 0
KSDS 210905Z 20006KT 20/12 A3011 RMK A01 T01990120  RH  063%=      5-min Rain = 0
KSDS 210910Z 20006KT 20/12 A3011 RMK A01 T01980120  RH  063%=      5-min Rain = 0
KSDS 210915Z 20006KT 20/12 A3011 RMK A01 T01980121  RH  063%=      5-min Rain = 0
KSDS 210920Z 20007KT 20/12 A301 RMK A01 T01990121  RH  063%=      5-min Rain = 0
KSDS 210925Z 20007KT 20/12 A301 RMK A01 T01990120  RH  062%=      5-min Rain = 0
KSDS 210930Z 20008KT 20/12 A301 RMK A01 T01980120  RH  063%=      5-min Rain = 0
KSDS 210935Z 20007KT 20/12 A301 RMK A01 T01960119  RH  063%=      5-min Rain = 0
KSDS 210940Z 20007KT 19/12 A301 RMK A01 T01940119  RH  064%=      5-min Rain = 0
KSDS 210945Z 20007KT 19/12 A301 RMK A01 T01930119  RH  065%=      5-min Rain = 0
KSDS 210950Z 20007KT 19/12 A301 RMK A01 T01940119  RH  064%=      5-min Rain = 0
KSDS 210955Z 20006KT 19/12 A301 RMK A01 T01930119  RH  065%=      5-min Rain = 0
KSDS 211000Z 21006KT 19/12 A301 RMK A01 T01920119  RH  065%=      5-min Rain = 0
KSDS 211005Z 21006KT 19/12 A301 RMK A01 T01910119  RH  065%=      5-min Rain = 0
KSDS 211010Z 21007KT 19/12 A301 RMK A01 T01910119  RH  065%=      5-min Rain = 0
KSDS 211015Z 20007KT 19/12 A301 RMK A01 T01930120  RH  065%=      5-min Rain = 0
KSDS 211020Z 20008KT 19/12 A301 RMK A01 T01940120  RH  065%=      5-min Rain = 0
KSDS 211025Z 20007KT 20/12 A301 RMK A01 T01950120  RH  064%=      5-min Rain = 0
KSDS 211030Z 20007KT 19/12 A3011 RMK A01 T01940120  RH  064%=      5-min Rain = 0
KSDS 211035Z 20007KT 19/12 A3011 RMK A01 T01930119  RH  065%=      5-min Rain = 0
KSDS 211040Z 20007KT 19/12 A3011 RMK A01 T01920119  RH  065%=      5-min Rain = 0
KSDS 211045Z 20007KT 19/12 A3011 RMK A01 T01930119  RH  065%=      5-min Rain = 0
KSDS 211050Z 20008KT 19/12 A3011 RMK A01 T01900118  RH  065%=      5-min Rain = 0
KSDS 211055Z 20007KT 19/12 A3011 RMK A01 T01890118  RH  066%=      5-min Rain = 0
KSDS 211100Z 21007KT 19/12 A3011 RMK A01 T01890118  RH  066%=      5-min Rain = 0
KSDS 211105Z 21007KT 19/12 A3011 RMK A01 T01880119  RH  066%=      5-min Rain = 0
KSDS 211110Z 21007KT 19/12 A3011 RMK A01 T01880119  RH  067%=      5-min Rain = 0
KSDS 211115Z 21007KT 19/12 A3011 RMK A01 T01890119  RH  066%=      5-min Rain = 0
KSDS 211120Z 21007KT 19/12 A3011 RMK A01 T01900119  RH  066%=      5-min Rain = 0
KSDS 211125Z 20007KT 19/12 A3011 RMK A01 T01880119  RH  067%=      5-min Rain = 0
KSDS 211130Z 20007KT 19/12 A3011 RMK A01 T01870119  RH  067%=      5-min Rain = 0
KSDS 211135Z 20007KT 19/12 A3012 RMK A01 T01860119  RH  067%=      5-min Rain = 0
KSDS 211140Z 20007KT 18/12 A3012 RMK A01 T01830119  RH  068%=      5-min Rain = 0
KSDS 211145Z 19007KT 18/12 A3012 RMK A01 T01840119  RH  068%=      5-min Rain = 0
KSDS 211150Z 19007KT 18/12 A3012 RMK A01 T01820118  RH  069%=      5-min Rain = 0
KSDS 211155Z 19007KT 18/12 A3012 RMK A01 T01810118  RH  069%=      5-min Rain = 0
KSDS 211200Z 19007KT 18/12 A3012 RMK A01 T01810118  RH  069%=      5-min Rain = 0
KSDS 211205Z 19006KT 18/12 A3012 RMK A01 T01820119  RH  069%=      5-min Rain = 0
KSDS 211210Z 19006KT 18/12 A3013 RMK A01 T01840120  RH  069%=      5-min Rain = 0
KSDS 211215Z 20007KT 19/12 A3013 RMK A01 T01850120  RH  068%=      5-min Rain = 0
KSDS 211220Z 20006KT 19/12 A3013 RMK A01 T01850120  RH  068%=      5-min Rain = 0
KSDS 211225Z 20006KT 19/12 A3013 RMK A01 T01850120  RH  068%=      5-min Rain = 0
KSDS 211230Z 20006KT 19/12 A3013 RMK A01 T01870120  RH  068%=      5-min Rain = 0
KSDS 211235Z 20006KT 19/12 A3013 RMK A01 T01850120  RH  068%=      5-min Rain = 0
KSDS 211240Z 21006KT 18/12 A3013 RMK A01 T01830120  RH  069%=      5-min Rain = 0
KSDS 211245Z 22007KT 19/12 A3013 RMK A01 T01860121  RH  069%=      5-min Rain = 0
KSDS 211250Z 22007KT 19/12 A3013 RMK A01 T01920122  RH  066%=      5-min Rain = 0
KSDS 211255Z 21007KT 19/12 A3013 RMK A01 T01930122  RH  066%=      5-min Rain = 0
KSDS 211300Z 22007KT 19/12 A3013 RMK A01 T01900122  RH  067%=      5-min Rain = 0
KSDS 211305Z 22007KT 19/12 A3013 RMK A01 T01920123  RH  067%=      5-min Rain = 0
KSDS 211310Z 22007KT 19/12 A3013 RMK A01 T01940123  RH  066%=      5-min Rain = 0
KSDS 211315Z 22007KT 20/12 A3013 RMK A01 T01960124  RH  066%=      5-min Rain = 0
KSDS 211320Z 22007KT 20/13 A3014 RMK A01 T01960125  RH  066%=      5-min Rain = 0
KSDS 211325Z 21007KT 20/13 A3014 RMK A01 T01970126  RH  066%=      5-min Rain = 0
KSDS 211330Z 21006KT 20/13 A3014 RMK A01 T02020128  RH  065%=      5-min Rain = 0
KSDS 211335Z 21006KT 21/13 A3014 RMK A01 T02130130  RH  062%=      5-min Rain = 0
KSDS 211340Z 21007KT 22/13 A3014 RMK A01 T02230133  RH  059%=      5-min Rain = 0
KSDS 211345Z 21008KT 23/13 A3014 RMK A01 T02340134  RH  055%=      5-min Rain = 0
KSDS 211350Z 20009KT 24/13 A3014 RMK A01 T02420134  RH  053%=      5-min Rain = 0
KSDS 211355Z 20010KT 25/13 A3014 RMK A01 T02500132  RH  050%=      5-min Rain = 0
KSDS 211400Z 20010KT 26/13 A3014 RMK A01 T02550132  RH  048%=      5-min Rain = 0
KSDS 211405Z 19012KT 26/13 A3014 RMK A01 T02580131  RH  047%=      5-min Rain = 0
KSDS 211410Z 20011KT 26/13 A3014 RMK A01 T02620131  RH  046%=      5-min Rain = 0
KSDS 211415Z 20013KT 26/13 A3014 RMK A01 T02630129  RH  045%=      5-min Rain = 0
KSDS 211420Z 20013KT 27/13 A3014 RMK A01 T02650129  RH  045%=      5-min Rain = 0
KSDS 211425Z 20012KT 27/13 A3014 RMK A01 T02680130  RH  044%=      5-min Rain = 0
KSDS 211430Z 20012KT 27/13 A3014 RMK A01 T02700129  RH  044%=      5-min Rain = 0
KSDS 211435Z 20011KT 27/13 A3014 RMK A01 T02730130  RH  043%=      5-min Rain = 0
KSDS 211440Z 21012G18KT 28/13 A3014 RMK A01 T02770129  RH  042%=      5-min Rain = 0
KSDS 211445Z 19013KT 28/13 A3014 RMK A01 T02790129  RH  041%=      5-min Rain = 0
KSDS 211450Z 19013G18KT 28/13 A3014 RMK A01 T02780128  RH  041%=      5-min Rain = 0
KSDS 211455Z 20012G18KT 28/13 A3014 RMK A01 T02820129  RH  041%=      5-min Rain = 0
KSDS 211500Z 20013KT 28/13 A3014 RMK A01 T02830128  RH  040%=      5-min Rain = 0
KSDS 211505Z 20012KT 28/13 A3014 RMK A01 T02830129  RH  040%=      5-min Rain = 0
KSDS 211510Z 19011KT 29/13 A3014 RMK A01 T02880130  RH  039%=      5-min Rain = 0
KSDS 211515Z 19012KT 29/13 A3014 RMK A01 T02890128  RH  038%=      5-min Rain = 0
KSDS 211520Z 19012KT 29/13 A3014 RMK A01 T02890128  RH  038%=      5-min Rain = 0
KSDS 211525Z 19011G17KT 29/13 A3014 RMK A01 T02940129  RH  038%=      5-min Rain = 0
KSDS 211530Z 20012KT 29/13 A3014 RMK A01 T02930128  RH  038%=      5-min Rain = 0
KSDS 211535Z 20011KT 30/13 A3014 RMK A01 T02950128  RH  037%=      5-min Rain = 0
KSDS 211540Z 20011KT 30/13 A3014 RMK A01 T02960129  RH  037%=      5-min Rain = 0
KSDS 211545Z 20010G15KT 30/13 A3014 RMK A01 T03010129  RH  036%=      5-min Rain = 0
KSDS 211550Z 20011KT 30/13 A3014 RMK A01 T03010128  RH  036%=      5-min Rain = 0
KSDS 211555Z 20012KT 30/13 A3015 RMK A01 T03010127  RH  036%=      5-min Rain = 0
KSDS 211600Z 20011KT 30/13 A3015 RMK A01 T03010127  RH  036%=      5-min Rain = 0
KSDS 211605Z 19011KT 31/13 A3015 RMK A01 T03060129  RH  035%=      5-min Rain = 0
KSDS 211610Z 19010KT 31/13 A3015 RMK A01 T03090129  RH  035%=      5-min Rain = 0
KSDS 211615Z 20010G15KT 31/13 A3015 RMK A01 T03100129  RH  034%=      5-min Rain = 0
KSDS 211620Z 19010KT 31/13 A3015 RMK A01 T03120129  RH  034%=      5-min Rain = 0
KSDS 211625Z 20010G15KT 31/13 A3015 RMK A01 T03130129  RH  034%=      5-min Rain = 0
KSDS 211630Z 18010G15KT 32/13 A3015 RMK A01 T03160128  RH  033%=      5-min Rain = 0
KSDS 211635Z 18010G17KT 32/13 A3015 RMK A01 T03150126  RH  033%=      5-min Rain = 0
KSDS 211640Z 18013KT 31/13 A3014 RMK A01 T03140125  RH  033%=      5-min Rain = 0
KSDS 211645Z 19011G17KT 31/13 A3014 RMK A01 T03140126  RH  033%=      5-min Rain = 0
KSDS 211650Z 20010G17KT 31/12 A3015 RMK A01 T03130124  RH  033%=      5-min Rain = 0
KSDS 211655Z 17013G18KT 32/12 A3015 RMK A01 T03160121  RH  032%=      5-min Rain = 0
KSDS 211700Z 17012G17KT 32/12 A3015 RMK A01 T03180120  RH  031%=      5-min Rain = 0
KSDS 211705Z 16010KT 32/12 A3015 RMK A01 T03230119  RH  030%=      5-min Rain = 0
KSDS 211710Z 16011G19KT 33/12 A3014 RMK A01 T03250120  RH  030%=      5-min Rain = 0
KSDS 211715Z 18011G19KT 32/12 A3014 RMK A01 T03230118  RH  030%=      5-min Rain = 0
KSDS 211720Z 18010G15KT 32/12 A3014 RMK A01 T03210116  RH  030%=      5-min Rain = 0
KSDS 211725Z 16010G19KT 32/11 A3014 RMK A01 T03220110  RH  028%=      5-min Rain = 0
KSDS 211730Z 19011G18KT 32/12 A3013 RMK A01 T03240118  RH  029%=      5-min Rain = 0
KSDS 211735Z 15010G20KT 33/11 A3013 RMK A01 T03280113  RH  028%=      5-min Rain = 0
KSDS 211740Z 18014G20KT 33/11 A3013 RMK A01 T03280114  RH  028%=      5-min Rain = 0
KSDS 211745Z 17011G17KT 33/11 A3013 RMK A01 T03280112  RH  028%=      5-min Rain = 0
KSDS 211750Z 17012KT 33/11 A3013 RMK A01 T03260114  RH  028%=      5-min Rain = 0
KSDS 211755Z 15011G16KT 33/12 A3013 RMK A01 T03290117  RH  028%=      5-min Rain = 0
KSDS 211800Z 15011G16KT 33/12 A3013 RMK A01 T03270116  RH  029%=      5-min Rain = 0
KSDS 211805Z 18009G18KT 33/12 A3013 RMK A01 T03290117  RH  029%=      5-min Rain = 0
KSDS 211810Z 19011G16KT 33/11 A3012 RMK A01 T03270114  RH  028%=      5-min Rain = 0
KSDS 211815Z 19010G15KT 33/12 A3012 RMK A01 T03290118  RH  029%=      5-min Rain = 0
KSDS 211820Z 17009G14KT 33/12 A3012 RMK A01 T03280118  RH  029%=      5-min Rain = 0
KSDS 211825Z 21009G15KT 33/11 A3011 RMK A01 T03270113  RH  028%=      5-min Rain = 0
KSDS 211830Z 20008G13KT 33/12 A3011 RMK A01 T03300116  RH  028%=      5-min Rain = 0
KSDS 211835Z 20010G16KT 33/11 A3011 RMK A01 T03330108  RH  026%=      5-min Rain = 0
KSDS 211840Z 18011G17KT 33/11 A3011 RMK A01 T03340113  RH  027%=      5-min Rain = 0
KSDS 211845Z 16009G17KT 33/11 A3011 RMK A01 T03320111  RH  027%=      5-min Rain = 0
KSDS 211850Z 19011G16KT 34/11 A301 RMK A01 T03360111  RH  026%=      5-min Rain = 0
KSDS 211855Z 16010G18KT 34/11 A301 RMK A01 T03370108  RH  026%=      5-min Rain = 0
KSDS 211900Z 17009G14KT 34/11 A301 RMK A01 T03360106  RH  025%=      5-min Rain = 0
KSDS 211905Z 16011KT 34/11 A301 RMK A01 T03370106  RH  025%=      5-min Rain = 0
KSDS 211910Z 16010KT 34/11 A3009 RMK A01 T03360107  RH  026%=      5-min Rain = 0
KSDS 211915Z 19012G19KT 34/11 A3009 RMK A01 T03380107  RH  025%=      5-min Rain = 0
KSDS 211920Z 17009G17KT 33/10 A3009 RMK A01 T03340101  RH  025%=      5-min Rain = 0
KSDS 211925Z 19011G17KT 34/10 A3009 RMK A01 T03380096  RH  023%=      5-min Rain = 0
KSDS 211930Z 18006G14KT 34/11 A3009 RMK A01 T03380107  RH  025%=      5-min Rain = 0
KSDS 211935Z 17005G14KT 34/10 A3008 RMK A01 T03360101  RH  024%=      5-min Rain = 0
KSDS 211940Z 14008G13KT 34/11 A3008 RMK A01 T03410109  RH  025%=      5-min Rain = 0
KSDS 211945Z 20010G17KT 34/11 A3008 RMK A01 T03420107  RH  025%=      5-min Rain = 0
KSDS 211950Z 17010G16KT 34/11 A3007 RMK A01 T03440112  RH  025%=      5-min Rain = 0
KSDS 211955Z 13009G15KT 35/11 A3007 RMK A01 T03470112  RH  025%=      5-min Rain = 0
KSDS 212000Z 13009G15KT 35/11 A3007 RMK A01 T03450110  RH  025%=      5-min Rain = 0
KSDS 212005Z 15010G16KT 34/11 A3007 RMK A01 T03440108  RH  025%=      5-min Rain = 0
KSDS 212010Z 18009G14KT 35/10 A3007 RMK A01 T03460101  RH  023%=      5-min Rain = 0
KSDS 212015Z 18008KT 35/10 A3006 RMK A01 T03450102  RH  023%=      5-min Rain = 0
KSDS 212020Z 19012G17KT 34/10 A3006 RMK A01 T03440099  RH  023%=      5-min Rain = 0
KSDS 212025Z 20009KT 34/09 A3006 RMK A01 T03410093  RH  023%=      5-min Rain = 0
KSDS 212030Z 20005KT 34/09 A3006 RMK A01 T03430086  RH  021%=      5-min Rain = 0
KSDS 212035Z 19009G16KT 35/10 A3005 RMK A01 T03460095  RH  022%=      5-min Rain = 0
KSDS 212040Z 16009G17KT 34/10 A3005 RMK A01 T03430102  RH  024%=      5-min Rain = 0
KSDS 212045Z 17010G15KT 34/10 A3005 RMK A01 T03410097  RH  023%=      5-min Rain = 0
KSDS 212050Z 13008G13KT 35/10 A3005 RMK A01 T03470096  RH  022%=      5-min Rain = 0
KSDS 212055Z 18009G14KT 35/10 A3004 RMK A01 T03480097  RH  022%=      5-min Rain = 0
KSDS 212100Z 17007G13KT 35/10 A3004 RMK A01 T03450097  RH  023%=      5-min Rain = 0
KSDS 212105Z 18009G15KT 35/09 A3004 RMK A01 T03480094  RH  022%=      5-min Rain = 0
KSDS 212110Z 17008G14KT 35/10 A3003 RMK A01 T03490098  RH  022%=      5-min Rain = 0
KSDS 212115Z 16010G16KT 35/10 A3003 RMK A01 T03500100  RH  023%=      5-min Rain = 0
KSDS 212120Z 15011KT 35/10 A3003 RMK A01 T03530102  RH  023%=      5-min Rain = 0
KSDS 212125Z 15004G10KT 35/10 A3003 RMK A01 T03490098  RH  022%=      5-min Rain = 0
KSDS 212130Z 19009G18KT 35/10 A3002 RMK A01 T03490096  RH  022%=      5-min Rain = 0
KSDS 212135Z 20008G15KT 35/10 A3002 RMK A01 T03470095  RH  022%=      5-min Rain = 0
KSDS 212140Z 15008G17KT 35/09 A3002 RMK A01 T03480092  RH  022%=      5-min Rain = 0
KSDS 212145Z 17008G14KT 35/09 A3002 RMK A01 T03490093  RH  022%=      5-min Rain = 0
KSDS 212150Z 17007G14KT 35/09 A3001 RMK A01 T03510094  RH  022%=      5-min Rain = 0
KSDS 212155Z 15013KT 35/10 A3001 RMK A01 T03530095  RH  021%=      5-min Rain = 0
KSDS 212200Z 14007G15KT 35/09 A3001 RMK A01 T03490091  RH  021%=      5-min Rain = 0
KSDS 212205Z 18008G14KT 35/09 A3001 RMK A01 T03470088  RH  021%=      5-min Rain = 0
KSDS 212210Z 16012G17KT 35/09 A3001 RMK A01 T03470088  RH  021%=      5-min Rain = 0
KSDS 212215Z 18011G17KT 34/09 A3001 RMK A01 T03430088  RH  022%=      5-min Rain = 0
KSDS 212220Z 16006G13KT 34/09 A3001 RMK A01 T03370087  RH  022%=      5-min Rain = 0
KSDS 212225Z 17008G14KT 35/10 A3001 RMK A01 T03480097  RH  022%=      5-min Rain = 0
KSDS 212230Z 16008G15KT 34/10 A30 RMK A01 T03440096  RH  023%=      5-min Rain = 0
KSDS 212235Z 16010G15KT 35/10 A30 RMK A01 T03480096  RH  022%=      5-min Rain = 0
KSDS 212240Z 14012G18KT 35/10 A30 RMK A01 T03510097  RH  022%=      5-min Rain = 0
KSDS 212245Z 13013KT 35/09 A30 RMK A01 T03460093  RH  022%=      5-min Rain = 0
KSDS 212250Z 15012KT 35/10 A30 RMK A01 T03450097  RH  023%=      5-min Rain = 0
KSDS 212255Z 16011KT 35/10 A2999 RMK A01 T03480096  RH  022%=      5-min Rain = 0
KSDS 212300Z 15012KT 35/09 A2999 RMK A01 T03460094  RH  022%=      5-min Rain = 0
KSDS 212305Z 15011KT 35/10 A2999 RMK A01 T03450098  RH  023%=      5-min Rain = 0
KSDS 212310Z 19010G16KT 34/10 A2999 RMK A01 T03440096  RH  023%=      5-min Rain = 0
KSDS 212315Z 15014G19KT 34/10 A2999 RMK A01 T03440099  RH  023%=      5-min Rain = 0
KSDS 212320Z 15014G21KT 34/10 A2999 RMK A01 T03420098  RH  023%=      5-min Rain = 0
KSDS 212325Z 15011G19KT 34/10 A2999 RMK A01 T03400098  RH  023%=      5-min Rain = 0
KSDS 212330Z 16011KT 34/10 A2999 RMK A01 T03400101  RH  024%=      5-min Rain = 0
KSDS 212335Z 17011G17KT 34/10 A2999 RMK A01 T03410102  RH  024%=      5-min Rain = 0
KSDS 212340Z 17014KT 34/10 A2998 RMK A01 T03380098  RH  024%=      5-min Rain = 0
KSDS 212345Z 17013KT 34/10 A2998 RMK A01 T03370098  RH  024%=      5-min Rain = 0
KSDS 212350Z 17010KT 34/10 A2998 RMK A01 T03350099  RH  024%=      5-min Rain = 0
KSDS 212355Z 17014G21KT 34/10 A2998 RMK A01 T03360101  RH  024%=      5-min Rain = 0
KSDS 220000Z 16014KT 33/10 A2998 RMK A01 T03340102  RH  025%=      5-min Rain = 0
KSDS 220005Z 17011G18KT 33/11 A2998 RMK A01 T03310105  RH  026%=      5-min Rain = 0
KSDS 220010Z 17013G19KT 33/10 A2997 RMK A01 T03310101  RH  025%=      5-min Rain = 0
KSDS 220015Z 15012G18KT 33/10 A2997 RMK A01 T03310101  RH  025%=      5-min Rain = 0
KSDS 220020Z 16012KT 33/10 A2997 RMK A01 T03290102  RH  026%=      5-min Rain = 0
KSDS 220025Z 17011KT 33/10 A2997 RMK A01 T03280101  RH  026%=      5-min Rain = 0
KSDS 220030Z 17011G16KT 33/10 A2998 RMK A01 T03260102  RH  026%=      5-min Rain = 0
KSDS 220035Z 16012KT 33/10 A2998 RMK A01 T03250102  RH  026%=      5-min Rain = 0
KSDS 220040Z 17011KT 32/10 A2998 RMK A01 T03230102  RH  027%=      5-min Rain = 0
KSDS 220045Z 15012G17KT 32/10 A2998 RMK A01 T03210103  RH  027%=      5-min Rain = 0
KSDS 220050Z 14009KT 32/11 A2999 RMK A01 T03190105  RH  028%=      5-min Rain = 0
KSDS 220055Z 15009KT 32/10 A2999 RMK A01 T03150104  RH  028%=      5-min Rain = 0
KSDS 220100Z 16009KT 31/10 A2999 RMK A01 T03120102  RH  028%=      5-min Rain = 0
KSDS 220105Z 15010KT 31/10 A2999 RMK A01 T03110103  RH  029%=      5-min Rain = 0
KSDS 220110Z 16009KT 31/10 A2999 RMK A01 T03090104  RH  029%=      5-min Rain = 0
KSDS 220115Z 15008KT 31/11 A2999 RMK A01 T03060105  RH  030%=      5-min Rain = 0
KSDS 220120Z 14007KT 30/11 A2999 RMK A01 T03020106  RH  031%=      5-min Rain = 0
KSDS 220125Z 13007KT 30/11 A2999 RMK A01 T02980109  RH  032%=      5-min Rain = 0
KSDS 220130Z 13007KT 30/11 A30 RMK A01 T02950113  RH  033%=      5-min Rain = 0
KSDS 220135Z 14006KT 29/11 A30 RMK A01 T02910114  RH  035%=      5-min Rain = 0
KSDS 220140Z 14006KT 29/12 A30 RMK A01 T02850115  RH  036%=      5-min Rain = 0
KSDS 220145Z 13006KT 28/12 A30 RMK A01 T02800115  RH  037%=      5-min Rain = 0
KSDS 220150Z 13006KT 28/12 A3001 RMK A01 T02770115  RH  038%=      5-min Rain = 0
KSDS 220155Z 13007KT 28/12 A3001 RMK A01 T02770115  RH  038%=      5-min Rain = 0
KSDS 220200Z 12007KT 28/12 A3001 RMK A01 T02760115  RH  038%=      5-min Rain = 0
KSDS 220205Z 13007KT 28/12 A3001 RMK A01 T02760116  RH  038%=      5-min Rain = 0
KSDS 220210Z 12007KT 28/12 A3002 RMK A01 T02750117  RH  039%=      5-min Rain = 0
KSDS 220215Z 12007KT 27/12 A3002 RMK A01 T02730117  RH  039%=      5-min Rain = 0
KSDS 220220Z 13007KT 27/12 A3002 RMK A01 T02700117  RH  040%=      5-min Rain = 0
KSDS 220225Z 13007KT 27/12 A3003 RMK A01 T02680118  RH  041%=      5-min Rain = 0
KSDS 220230Z 13007KT 27/12 A3003 RMK A01 T02650118  RH  041%=      5-min Rain = 0
KSDS 220235Z 13007KT 26/12 A3003 RMK A01 T02640118  RH  042%=      5-min Rain = 0
KSDS 220240Z 13006KT 26/12 A3003 RMK A01 T02610118  RH  042%=      5-min Rain = 0
KSDS 220245Z 13006KT 26/12 A3004 RMK A01 T02590118  RH  043%=      5-min Rain = 0
KSDS 220250Z 13007KT 26/12 A3004 RMK A01 T02560118  RH  044%=      5-min Rain = 0
KSDS 220255Z 14007KT 26/12 A3004 RMK A01 T02560118  RH  044%=      5-min Rain = 0
KSDS 220300Z 14007KT 26/12 A3004 RMK A01 T02550119  RH  044%=      5-min Rain = 0
KSDS 220305Z 14007KT 25/12 A3004 RMK A01 T02530119  RH  045%=      5-min Rain = 0
KSDS 220310Z 13007KT 25/12 A3005 RMK A01 T02510119  RH  046%=      5-min Rain = 0
KSDS 220315Z 13008KT 25/12 A3005 RMK A01 T02510120  RH  046%=      5-min Rain = 0
KSDS 220320Z 13008KT 25/12 A3005 RMK A01 T02510120  RH  046%=      5-min Rain = 0
KSDS 220325Z 13008KT 25/12 A3005 RMK A01 T02480120  RH  046%=      5-min Rain = 0
KSDS 220330Z 13009KT 24/12 A3005 RMK A01 T02440120  RH  048%=      5-min Rain = 0
KSDS 220335Z 13009KT 25/12 A3005 RMK A01 T02450121  RH  048%=      5-min Rain = 0
KSDS 220340Z 13008KT 24/12 A3005 RMK A01 T02440121  RH  048%=      5-min Rain = 0
KSDS 220345Z 13008KT 24/12 A3004 RMK A01 T02410121  RH  049%=      5-min Rain = 0
KSDS 220350Z 13008KT 24/12 A3004 RMK A01 T02420122  RH  049%=      5-min Rain = 0
KSDS 220355Z 13007KT 24/12 A3005 RMK A01 T02420122  RH  049%=      5-min Rain = 0
KSDS 220400Z 13007KT 24/12 A3004 RMK A01 T02400122  RH  049%=      5-min Rain = 0
KSDS 220405Z 14007KT 24/12 A3004 RMK A01 T02390121  RH  050%=      5-min Rain = 0
KSDS 220410Z 14007KT 24/12 A3004 RMK A01 T02370121  RH  050%=      5-min Rain = 0
KSDS 220415Z 14007KT 23/12 A3004 RMK A01 T02340121  RH  051%=      5-min Rain = 0
KSDS 220420Z 14007KT 23/12 A3004 RMK A01 T02320121  RH  051%=      5-min Rain = 0
KSDS 220425Z 15007KT 23/12 A3005 RMK A01 T02300120  RH  052%=      5-min Rain = 0
KSDS 220430Z 14006KT 23/12 A3005 RMK A01 T02290120  RH  052%=      5-min Rain = 0
KSDS 220435Z 14005KT 23/12 A3005 RMK A01 T02280120  RH  052%=      5-min Rain = 0
KSDS 220440Z 14005KT 23/12 A3005 RMK A01 T02280120  RH  053%=      5-min Rain = 0
KSDS 220445Z 15004KT 23/12 A3005 RMK A01 T02280120  RH  052%=      5-min Rain = 0
KSDS 220450Z 17003KT 23/12 A3006 RMK A01 T02280120  RH  052%=      5-min Rain = 0
KSDS 220455Z 31010G15KT 22/12 A3007 RMK A01 T02220121  RH  055%=      5-min Rain = 0

Page generated in 0.0258 seconds.